Time;durP1;ratioP1;P1;durP2;ratioP2;P2;SDS_P1;SDS_P2;PMS_P1;PMS_P2;Temp;Humidity;BMP_temperature;BMP_pressure;BME280_temperature;BME280_humidity;BME280_pressure;Samples;Min_cycle;Max_cycle;Signal;HPM_P1;HPM_P2
2022/10/09 00:01:53;;;;;;;10.07;4.60;;;;;;;6.08;93.00;102303.00;5046269;28;20033;-70
2022/10/09 00:04:18;;;;;;;10.77;5.43;;;;;;;6.04;93.42;102304.09;5061595;28;20043;-71
2022/10/09 00:06:44;;;;;;;7.80;4.22;;;;;;;5.98;93.87;102310.44;5052752;28;20036;-70
2022/10/09 00:09:09;;;;;;;9.02;3.83;;;;;;;5.97;93.90;102307.94;5057933;28;20789;-70
2022/10/09 00:11:35;;;;;;;10.27;4.60;;;;;;;5.98;93.89;102309.63;5061647;28;20743;-70
2022/10/09 00:14:00;;;;;;;8.95;4.18;;;;;;;6.01;93.67;102305.13;5062684;28;20040;-70
2022/10/09 00:16:26;;;;;;;10.77;4.38;;;;;;;6.01;93.53;102307.69;5047539;28;20040;-70
2022/10/09 00:18:52;;;;;;;9.85;4.10;;;;;;;5.98;93.59;102313.03;5055388;28;20029;-70
2022/10/09 00:21:24;;;;;;;11.27;4.72;;;;;;;5.94;93.18;102311.50;5060414;28;20079;-70
2022/10/09 00:23:51;;;;;;;9.13;4.35;;;;;;;5.90;93.92;102311.78;5059342;28;20028;-70
2022/10/09 00:26:17;;;;;;;12.40;4.63;;;;;;;5.87;93.84;102305.06;5059702;28;20114;-70
2022/10/09 00:28:42;;;;;;;16.70;5.10;;;;;;;5.83;93.67;102311.31;5060104;28;20029;-70
2022/10/09 00:31:09;;;;;;;17.67;5.00;;;;;;;5.78;94.00;102308.16;5054312;28;20033;-70
2022/10/09 00:33:36;;;;;;;11.90;5.13;;;;;;;5.74;93.94;102314.41;5058015;28;20052;-70
2022/10/09 00:36:24;;;;;;;11.48;5.20;;;;;;;5.71;94.56;102315.41;5063959;28;20036;-70
2022/10/09 00:38:51;;;;;;;14.65;6.10;;;;;;;5.70;94.50;102320.66;5057988;28;20029;-70
2022/10/09 00:41:26;;;;;;;12.20;6.25;;;;;;;5.66;94.37;102320.00;5060183;28;20032;-70
2022/10/09 00:43:55;;;;;;;7.90;4.63;;;;;;;5.65;94.68;102319.16;5057630;28;20873;-70
2022/10/09 00:46:38;;;;;;;10.75;4.93;;;;;;;5.64;94.77;102312.34;5058847;28;20040;-70
2022/10/09 00:49:22;;;;;;;10.07;4.85;;;;;;;5.63;94.78;102307.28;5058924;28;20037;-71
2022/10/09 00:51:50;;;;;;;13.73;5.57;;;;;;;5.60;94.52;102312.63;5060688;28;20044;-70
2022/10/09 00:54:19;;;;;;;10.77;5.32;;;;;;;5.56;95.02;102321.44;5051167;28;20044;-70
2022/10/09 00:56:45;;;;;;;11.18;5.55;;;;;;;5.49;94.75;102320.13;5056033;28;20029;-70
2022/10/09 00:59:12;;;;;;;12.57;5.60;;;;;;;5.44;94.58;102320.34;5062066;28;20052;-70
2022/10/09 01:01:39;;;;;;;10.38;6.20;;;;;;;5.44;94.72;102318.63;5057138;28;20508;-70
2022/10/09 01:04:04;;;;;;;11.07;5.63;;;;;;;5.47;95.24;102315.88;5060804;28;20020;-70
2022/10/09 01:07:03;;;;;;;10.00;5.45;;;;;;;5.45;95.08;102314.31;5065461;28;20499;-70
2022/10/09 01:09:41;;;;;;;13.88;5.88;;;;;;;5.40;94.27;102313.72;5063929;28;20726;-70
2022/10/09 01:12:14;;;;;;;11.15;5.15;;;;;;;5.34;94.80;102314.06;5058319;28;20037;-70
2022/10/09 01:15:00;;;;;;;9.95;5.32;;;;;;;5.27;94.95;102313.56;5057694;28;20043;-70
2022/10/09 01:17:37;;;;;;;14.38;5.95;;;;;;;5.26;94.97;102309.34;5057196;28;20037;-70
2022/10/09 01:20:21;;;;;;;10.73;5.22;;;;;;;5.22;94.77;102311.25;5054900;28;20032;-70
2022/10/09 01:23:15;;;;;;;13.05;5.75;;;;;;;5.20;95.57;102307.13;5065185;28;20038;-70
2022/10/09 01:26:13;;;;;;;13.73;5.20;;;;;;;5.19;95.02;102313.16;5081666;28;20028;-70
2022/10/09 01:28:41;;;;;;;10.70;5.90;;;;;;;5.17;95.01;102304.72;5060822;28;20028;-70
2022/10/09 01:31:09;;;;;;;11.23;5.88;;;;;;;5.15;95.34;102304.78;5055932;28;20024;-70
2022/10/09 01:33:35;;;;;;;10.02;5.68;;;;;;;5.11;95.64;102305.88;5057157;28;20444;-70
2022/10/09 01:36:02;;;;;;;12.68;5.85;;;;;;;5.11;95.22;102295.59;5055842;28;20059;-70
2022/10/09 01:38:29;;;;;;;13.18;5.57;;;;;;;5.11;95.66;102305.06;5056507;28;20046;-70
2022/10/09 01:40:55;;;;;;;14.10;5.50;;;;;;;5.09;95.71;102297.41;5061551;28;20116;-70
2022/10/09 01:43:21;;;;;;;11.18;5.80;;;;;;;5.06;95.35;102300.16;5058905;28;20516;-70
2022/10/09 01:45:47;;;;;;;9.98;5.18;;;;;;;5.01;95.48;102294.41;5048123;28;20028;-70
2022/10/09 01:48:20;;;;;;;10.02;6.20;;;;;;;4.99;95.25;102298.81;5062164;28;20508;-70
2022/10/09 01:50:51;;;;;;;;;;;;;;;4.97;95.82;102293.78;5060462;28;20036;-70
2022/10/09 01:53:20;;;;;;;10.35;4.47;;;;;;;4.93;95.87;102294.84;5056466;28;19924;-70
2022/10/09 01:55:53;;;;;;;15.00;6.25;;;;;;;4.88;95.67;102289.94;5058721;28;20044;-70
2022/10/09 01:58:53;;;;;;;13.95;5.65;;;;;;;4.86;96.05;102289.22;5058988;28;20123;-70
2022/10/09 02:01:25;;;;;;;11.20;5.57;;;;;;;4.84;95.78;102288.47;5051922;28;20409;-71
2022/10/09 02:03:53;;;;;;;12.35;5.38;;;;;;;4.79;96.22;102285.31;5057413;28;20036;-70
2022/10/09 02:06:19;;;;;;;10.88;5.38;;;;;;;4.78;96.41;102285.38;5056557;28;20060;-70
2022/10/09 02:08:49;;;;;;;14.82;6.00;;;;;;;4.75;96.23;102275.28;5059233;28;20080;-71
2022/10/09 02:11:15;;;;;;;10.60;5.80;;;;;;;4.72;96.02;102280.56;5055503;28;20488;-71
2022/10/09 02:13:41;;;;;;;10.32;5.47;;;;;;;4.70;96.29;102272.94;5053488;28;20036;-70
2022/10/09 02:16:28;;;;;;;10.45;5.35;;;;;;;4.68;96.45;102278.16;5091732;28;20039;-70
2022/10/09 02:19:19;;;;;;;10.15;5.53;;;;;;;4.69;96.18;102273.88;5057234;28;20397;-70
2022/10/09 02:21:51;;;;;;;13.45;5.45;;;;;;;4.72;96.07;102275.44;5059379;28;20044;-70
2022/10/09 02:24:19;;;;;;;11.80;5.43;;;;;;;4.73;95.94;102272.78;5057183;28;20025;-70
2022/10/09 02:26:44;;;;;;;12.75;5.40;;;;;;;4.71;95.50;102274.59;5057290;28;20389;-70
2022/10/09 02:29:12;;;;;;;8.48;5.53;;;;;;;4.63;95.31;102274.16;5056471;28;20033;-70
2022/10/09 02:31:40;;;;;;;13.73;4.90;;;;;;;4.55;95.63;102269.44;5062019;28;20033;-70
2022/10/09 02:34:11;;;;;;;7.70;4.90;;;;;;;4.52;95.80;102273.91;5060794;28;20569;-70
2022/10/09 02:36:38;;;;;;;10.98;5.30;;;;;;;4.49;95.83;102277.47;5060550;28;20082;-70
2022/10/09 02:39:05;;;;;;;11.93;5.13;;;;;;;4.45;95.93;102275.97;5056539;28;20124;-70
2022/10/09 02:41:31;;;;;;;9.50;5.00;;;;;;;4.44;95.72;102271.75;5062225;28;20033;-70
2022/10/09 02:43:56;;;;;;;11.13;5.28;;;;;;;4.42;96.16;102269.25;5059003;28;21089;-70
2022/10/09 02:46:22;;;;;;;9.98;4.93;;;;;;;4.43;95.98;102272.66;5058240;28;20032;-70
2022/10/09 02:48:48;;;;;;;15.02;5.95;;;;;;;4.47;96.04;102272.41;5061966;28;20033;-70
2022/10/09 02:51:14;;;;;;;9.55;5.10;;;;;;;4.46;96.01;102270.78;5059034;28;20150;-70
2022/10/09 02:53:39;;;;;;;12.02;4.75;;;;;;;4.47;95.96;102272.41;5058075;28;20070;-70
2022/10/09 02:56:05;;;;;;;13.80;6.00;;;;;;;4.43;95.71;102272.66;5054523;28;20037;-70
2022/10/09 02:58:32;;;;;;;8.43;4.30;;;;;;;4.40;95.47;102271.06;5057539;28;20690;-70
2022/10/09 03:00:58;;;;;;;12.20;5.55;;;;;;;4.37;95.74;102262.69;5085626;28;20029;-70
2022/10/09 03:03:24;;;;;;;12.55;5.78;;;;;;;4.35;96.14;102262.78;5056769;28;20029;-70
2022/10/09 03:06:01;;;;;;;9.35;6.03;;;;;;;4.35;96.44;102262.78;5060720;28;20033;-70
2022/10/09 03:08:27;;;;;;;10.77;5.32;;;;;;;4.36;96.79;102255.91;5058754;28;20040;-70
2022/10/09 03:10:52;;;;;;;14.98;5.03;;;;;;;4.35;96.87;102262.78;5061598;28;20025;-70
2022/10/09 03:13:18;;;;;;;7.80;4.97;;;;;;;4.33;96.70;102262.00;5053602;28;20481;-70
2022/10/09 03:15:43;;;;;;;13.18;4.95;;;;;;;4.34;96.00;102255.16;5067849;28;20485;-70
2022/10/09 03:18:09;;;;;;;8.90;4.85;;;;;;;4.31;96.51;102256.13;5062875;28;20033;-70
2022/10/09 03:20:34;;;;;;;12.48;5.53;;;;;;;4.30;96.59;102262.19;5055704;28;20028;-70
2022/10/09 03:22:59;;;;;;;14.18;5.35;;;;;;;4.27;96.71;102257.19;5069693;28;20032;-70
2022/10/09 03:25:25;;;;;;;18.65;6.38;;;;;;;4.26;97.32;102258.94;5048518;28;20206;-70
2022/10/09 03:27:50;;;;;;;11.18;5.25;;;;;;;4.24;97.25;102258.19;5059807;28;20041;-70
2022/10/09 03:30:18;;;;;;;10.50;5.05;;;;;;;4.25;97.21;102257.28;5087097;28;20029;-70
2022/10/09 03:32:44;;;;;;;13.05;5.60;;;;;;;4.27;97.15;102258.03;5059044;28;20032;-70
2022/10/09 03:35:09;;;;;;;14.45;5.32;;;;;;;4.21;97.18;102254.97;5062283;28;20029;-70
2022/10/09 03:37:35;;;;;;;8.82;5.07;;;;;;;4.14;97.56;102251.88;5055872;28;20031;-70
2022/10/09 03:40:00;;;;;;;10.70;5.00;;;;;;;4.12;97.66;102247.72;5063049;28;20040;-70
2022/10/09 03:42:26;;;;;;;11.10;5.55;;;;;;;4.13;97.76;102260.50;5057268;28;20037;-70
2022/10/09 03:44:52;;;;;;;21.17;5.57;;;;;;;4.14;97.68;102246.72;5048934;28;20639;-70
2022/10/09 03:47:17;;;;;;;13.68;5.00;;;;;;;4.15;98.02;102252.72;5063405;28;20068;-71
2022/10/09 03:49:43;;;;;;;10.20;5.90;;;;;;;4.13;97.77;102257.91;5054714;28;20035;-71
2022/10/09 03:52:08;;;;;;;13.50;6.43;;;;;;;4.09;98.08;102257.25;5058247;28;20750;-70
2022/10/09 03:54:34;;;;;;;16.10;4.75;;;;;;;4.07;98.19;102248.78;5062099;28;20043;-71
2022/10/09 03:56:59;;;;;;;8.73;5.32;;;;;;;4.05;98.38;102252.34;5059344;28;20698;-71
2022/10/09 03:59:24;;;;;;;9.93;5.05;;;;;;;4.04;98.77;102251.50;5064097;28;20033;-70
2022/10/09 04:01:50;;;;;;;12.20;4.72;;;;;;;4.05;98.67;102239.50;5064863;28;20477;-70
2022/10/09 04:04:16;;;;;;;8.95;4.72;;;;;;;4.03;98.78;102249.88;5059026;28;20687;-71
2022/10/09 04:06:41;;;;;;;10.93;4.60;;;;;;;4.01;98.74;102238.84;5062911;28;20554;-71
2022/10/09 04:09:07;;;;;;;15.05;5.45;;;;;;;4.00;98.30;102246.63;5069377;28;20073;-71
2022/10/09 04:11:32;;;;;;;6.47;4.22;;;;;;;4.00;98.43;102251.75;5062527;28;20082;-71
2022/10/09 04:13:59;;;;;;;9.10;4.85;;;;;;;4.00;98.50;102244.06;5060068;28;20040;-71
2022/10/09 04:16:24;;;;;;;9.45;4.93;;;;;;;3.99;98.83;102244.94;5076037;28;20048;-71
2022/10/09 04:18:50;;;;;;;10.68;4.78;;;;;;;4.01;98.54;102240.56;5058284;28;20036;-71
2022/10/09 04:21:15;;;;;;;9.88;4.20;;;;;;;3.98;98.60;102240.75;5056968;28;20043;-71
2022/10/09 04:23:41;;;;;;;10.75;4.55;;;;;;;4.00;98.63;102244.88;5060125;28;20392;-70
2022/10/09 04:26:06;;;;;;;15.05;4.85;;;;;;;4.00;99.18;102239.75;5065701;28;20028;-71
2022/10/09 04:28:31;;;;;;;10.82;4.85;;;;;;;3.91;99.66;102242.78;5047962;28;20040;-71
2022/10/09 04:30:58;;;;;;;8.50;4.57;;;;;;;3.92;100.00;102234.19;5056167;28;20098;-71
2022/10/09 04:33:25;;;;;;;11.30;5.03;;;;;;;3.88;100.00;102236.06;5056416;28;20037;-71
2022/10/09 04:35:52;;;;;;;10.52;4.53;;;;;;;3.95;100.00;102239.13;5058331;28;20088;-71
2022/10/09 04:38:19;;;;;;;11.88;5.18;;;;;;;4.05;100.00;102236.94;5054711;28;20031;-70
2022/10/09 04:40:57;;;;;;;9.82;4.95;;;;;;;4.04;100.00;102232.72;5058608;28;20043;-70
2022/10/09 04:43:23;;;;;;;9.55;5.55;;;;;;;4.03;100.00;102233.63;5059415;28;20025;-71
2022/10/09 04:45:48;;;;;;;13.95;5.70;;;;;;;4.05;100.00;102235.22;5042872;28;20039;-70
2022/10/09 04:48:14;;;;;;;8.45;4.82;;;;;;;3.98;100.00;102233.84;5071603;28;20040;-71
2022/10/09 04:50:39;;;;;;;15.65;5.75;;;;;;;3.95;100.00;102234.00;5053032;28;20036;-70
2022/10/09 04:53:05;;;;;;;13.45;5.53;;;;;;;3.95;100.00;102228.88;5054442;28;20041;-71
2022/10/09 04:55:30;;;;;;;9.93;6.35;;;;;;;3.97;100.00;102232.19;5063592;28;20036;-71
2022/10/09 04:57:55;;;;;;;13.05;6.55;;;;;;;3.92;100.00;102226.47;5063596;28;20090;-71
2022/10/09 05:00:21;;;;;;;14.10;6.00;;;;;;;3.90;100.00;102228.28;5059302;28;20029;-71
2022/10/09 05:02:46;;;;;;;11.95;5.68;;;;;;;3.88;100.00;102227.53;5056422;28;20040;-71
2022/10/09 05:05:12;;;;;;;14.68;6.32;;;;;;;3.87;100.00;102224.13;5052809;28;20116;-70
2022/10/09 05:07:37;;;;;;;15.95;6.70;;;;;;;3.88;100.00;102218.09;5061483;28;20039;-71
2022/10/09 05:10:04;;;;;;;13.77;6.07;;;;;;;3.89;100.00;102218.91;5055620;28;20090;-71
2022/10/09 05:12:29;;;;;;;11.93;6.65;;;;;;;3.87;100.00;102224.13;5059053;28;20037;-71
2022/10/09 05:14:55;;;;;;;12.43;5.55;;;;;;;3.89;100.00;102222.31;5061684;28;20106;-71
2022/10/09 05:17:20;;;;;;;8.82;5.47;;;;;;;3.90;100.00;102220.59;5065054;28;20028;-71
2022/10/09 05:19:45;;;;;;;12.02;5.47;;;;;;;3.90;100.00;102223.16;5063834;28;20035;-71
2022/10/09 05:22:11;;;;;;;14.18;5.60;;;;;;;3.86;100.00;102222.50;5055154;28;20037;-71
2022/10/09 05:24:36;;;;;;;12.38;5.35;;;;;;;3.82;100.00;102215.81;5058614;28;20041;-71
2022/10/09 05:27:02;;;;;;;10.43;5.53;;;;;;;3.80;100.00;102221.94;5055840;28;20025;-71
2022/10/09 05:29:27;;;;;;;10.50;5.05;;;;;;;3.80;100.00;102225.34;5057805;28;20087;-71
2022/10/09 05:31:53;;;;;;;8.23;4.35;;;;;;;3.78;100.00;102216.88;5061952;28;20040;-71
2022/10/09 05:34:18;;;;;;;13.32;5.18;;;;;;;3.76;100.00;102233.28;5063121;28;20032;-71
2022/10/09 05:36:43;;;;;;;11.88;4.70;;;;;;;3.74;100.00;102229.97;5054290;28;20075;-71
2022/10/09 05:39:09;;;;;;;11.10;4.43;;;;;;;3.69;100.00;102225.91;5062407;28;20048;-71
2022/10/09 05:41:34;;;;;;;10.10;4.63;;;;;;;3.68;100.00;102226.78;5059784;28;20041;-71
2022/10/09 05:44:01;;;;;;;13.20;5.38;;;;;;;3.71;100.00;102236.06;5056430;28;20028;-71
2022/10/09 05:46:28;;;;;;;12.52;5.95;;;;;;;3.76;100.00;102228.97;5056019;28;20037;-71
2022/10/09 05:49:00;;;;;;;10.52;4.32;;;;;;;3.74;100.00;102225.66;5052979;28;20032;-71
2022/10/09 05:51:31;;;;;;;10.75;6.38;;;;;;;3.89;100.00;102219.75;5054955;28;20033;-70
2022/10/09 05:53:57;;;;;;;11.80;6.10;;;;;;;3.91;100.00;102224.81;5056462;28;20050;-71
2022/10/09 05:56:33;;;;;;;13.60;6.88;;;;;;;3.95;100.00;102228.06;5055395;28;20062;-71
2022/10/09 05:59:01;;;;;;;13.48;6.50;;;;;;;3.93;100.00;102222.16;5051610;28;20035;-71
2022/10/09 06:01:30;;;;;;;12.40;6.80;;;;;;;3.94;100.00;102228.94;5056417;28;20072;-70
2022/10/09 06:03:57;;;;;;;17.80;8.45;;;;;;;3.88;100.00;102217.25;5057039;28;20036;-69
2022/10/09 06:06:25;;;;;;;15.77;7.45;;;;;;;4.03;100.00;102223.34;5049962;28;20512;-71
2022/10/09 06:08:51;;;;;;;19.42;8.25;;;;;;;4.04;100.00;102228.41;5057569;28;20032;-71
2022/10/09 06:11:27;;;;;;;18.08;8.27;;;;;;;4.03;100.00;102228.47;5088899;28;20465;-70
2022/10/09 06:13:53;;;;;;;16.23;8.80;;;;;;;4.01;100.00;102227.72;5082558;28;20032;-71
2022/10/09 06:16:19;;;;;;;18.00;9.10;;;;;;;4.05;100.00;102234.34;5067400;28;20115;-71
2022/10/09 06:18:46;;;;;;;24.85;10.35;;;;;;;4.00;100.00;102237.19;5053647;28;20074;-71
2022/10/09 06:21:12;;;;;;;20.23;9.98;;;;;;;4.01;100.00;102236.28;5087249;28;20033;-70
2022/10/09 06:23:38;;;;;;;18.58;9.63;;;;;;;4.08;100.00;102227.34;5055794;28;20031;-71
2022/10/09 06:26:12;;;;;;;13.73;9.02;;;;;;;4.23;100.00;102240.31;5059562;28;20665;-70
2022/10/09 06:28:38;;;;;;;15.20;8.32;;;;;;;4.26;100.00;102238.41;5057297;28;20094;-70
2022/10/09 06:31:06;;;;;;;16.98;9.95;;;;;;;4.29;100.00;102234.84;5040764;28;20021;-70
2022/10/09 06:33:33;;;;;;;14.05;9.40;;;;;;;4.31;100.00;102234.75;5050544;28;20039;-71
2022/10/09 06:36:00;;;;;;;18.05;9.82;;;;;;;4.36;100.00;102238.75;5057814;28;20024;-70
2022/10/09 06:38:26;;;;;;;18.20;9.60;;;;;;;4.39;100.00;102236.03;5077189;28;20040;-71
2022/10/09 06:40:51;;;;;;;14.13;9.52;;;;;;;4.44;100.00;102239.16;5054723;28;20021;-70
2022/10/09 06:43:17;;;;;;;21.00;8.98;;;;;;;4.60;100.00;102230.66;5061686;28;20029;-70
2022/10/09 06:45:42;;;;;;;20.05;9.60;;;;;;;4.67;100.00;102234.53;5058838;28;20118;-70
2022/10/09 06:48:08;;;;;;;32.30;13.18;;;;;;;4.75;100.00;102234.16;5055002;28;20032;-69
2022/10/09 06:50:35;;;;;;;18.55;9.35;;;;;;;4.93;100.00;102237.47;5058303;28;20033;-70
2022/10/09 06:53:00;;;;;;;18.45;9.30;;;;;;;5.13;100.00;102236.38;5058041;28;20108;-69
2022/10/09 06:55:25;;;;;;;19.35;9.40;;;;;;;5.41;100.00;102233.88;5054274;28;20139;-70
2022/10/09 06:57:51;;;;;;;26.35;10.02;;;;;;;5.70;100.00;102227.97;5061916;28;20040;-70
2022/10/09 07:00:16;;;;;;;14.80;9.45;;;;;;;5.96;100.00;102224.72;5060739;28;20049;-70
2022/10/09 07:02:42;;;;;;;19.48;9.00;;;;;;;6.44;100.00;102224.44;5073691;28;20029;-69
2022/10/09 07:05:07;;;;;;;14.43;8.38;;;;;;;6.90;98.76;102220.75;5070961;28;20032;-70
2022/10/09 07:07:33;;;;;;;17.30;8.85;;;;;;;7.33;95.91;102210.25;5061823;28;20052;-72
2022/10/09 07:09:58;;;;;;;16.63;7.78;;;;;;;7.79;93.83;102210.59;5060853;28;20024;-72
2022/10/09 07:12:24;;;;;;;16.88;7.38;;;;;;;8.13;90.24;102212.66;5060025;28;20081;-71
2022/10/09 07:14:49;;;;;;;14.18;6.65;;;;;;;8.50;88.34;102217.88;5064532;28;20028;-72
2022/10/09 07:17:14;;;;;;;13.63;6.93;;;;;;;8.91;86.21;102216.69;5064017;28;20040;-72
2022/10/09 07:19:40;;;;;;;11.68;6.80;;;;;;;9.16;84.00;102216.56;5062253;28;20033;-72
2022/10/09 07:22:10;;;;;;;15.95;7.10;;;;;;;9.29;83.65;102216.50;5067843;28;20032;-72
2022/10/09 07:24:35;;;;;;;16.70;7.78;;;;;;;9.27;81.95;102213.19;5060094;28;20584;-72
2022/10/09 07:27:01;;;;;;;12.45;7.40;;;;;;;9.41;82.41;102213.94;5059525;28;20041;-71
2022/10/09 07:29:26;;;;;;;17.85;6.97;;;;;;;9.42;81.77;102219.00;5057324;28;20044;-71
2022/10/09 07:31:52;;;;;;;14.20;6.55;;;;;;;9.79;81.22;102211.06;5058771;28;20028;-71
2022/10/09 07:34:17;;;;;;;13.80;6.40;;;;;;;9.98;80.63;102207.88;5048840;28;20044;-72
2022/10/09 07:36:43;;;;;;;8.20;6.05;;;;;;;10.16;79.26;102213.44;5056600;28;20032;-72
2022/10/09 07:39:08;;;;;;;13.75;6.90;;;;;;;10.48;77.76;102208.34;5059509;28;20405;-72
2022/10/09 07:41:34;;;;;;;9.93;6.07;;;;;;;10.77;78.16;102206.97;5055088;28;20036;-72
2022/10/09 07:44:00;;;;;;;12.07;6.57;;;;;;;10.88;76.41;102212.13;5060257;28;20036;-72
2022/10/09 07:46:27;;;;;;;14.23;6.20;;;;;;;11.08;75.41;102206.16;5060133;28;20040;-72
2022/10/09 07:48:52;;;;;;;10.15;5.93;;;;;;;11.01;74.85;102214.56;5068120;28;20035;-73
2022/10/09 07:51:22;;;;;;;12.13;6.38;;;;;;;11.43;73.71;102204.19;5073694;28;20021;-72
2022/10/09 07:53:48;;;;;;;24.13;5.30;;;;;;;11.43;73.51;102199.00;5069646;28;20035;-74
2022/10/09 07:56:25;;;;;;;10.25;6.50;;;;;;;11.37;73.41;102199.50;5059244;28;20421;-74
2022/10/09 07:58:53;;;;;;;10.65;5.80;;;;;;;11.69;73.85;102194.22;5057985;28;20032;-73
2022/10/09 08:01:19;;;;;;;14.90;5.03;;;;;;;11.89;72.45;102195.16;5061169;28;20040;-73
2022/10/09 08:03:45;;;;;;;8.40;4.47;;;;;;;12.10;71.71;102194.28;5056532;28;20048;-73
2022/10/09 08:06:11;;;;;;;10.30;5.15;;;;;;;11.65;71.23;102185.03;5061000;28;20033;-74
2022/10/09 08:08:36;;;;;;;14.30;5.05;;;;;;;11.83;71.81;102185.28;5070496;28;20505;-75
2022/10/09 08:11:13;;;;;;;11.02;4.30;;;;;;;12.13;70.71;102192.25;5054675;28;20082;-73
2022/10/09 08:13:40;;;;;;;12.40;4.32;;;;;;;12.10;69.83;102181.28;5070366;28;20037;-74
2022/10/09 08:16:06;;;;;;;11.32;4.30;;;;;;;12.32;69.50;102183.69;5059966;28;20499;-76
2022/10/09 08:18:31;;;;;;;8.43;4.35;;;;;;;12.70;68.40;102181.28;5056783;28;20448;-74
2022/10/09 08:21:02;;;;;;;12.93;4.80;;;;;;;13.13;67.98;102180.00;5058170;28;20032;-75
2022/10/09 08:23:28;;;;;;;8.85;4.57;;;;;;;13.27;66.41;102181.38;5056887;28;20033;-74
2022/10/09 08:25:53;;;;;;;8.65;4.35;;;;;;;13.48;65.54;102184.63;5068657;28;20082;-75
2022/10/09 08:28:19;;;;;;;11.88;4.22;;;;;;;13.89;65.04;102182.56;5058318;28;20115;-74
2022/10/09 08:30:44;;;;;;;11.20;3.88;;;;;;;13.87;64.06;102181.88;5047853;28;20036;-73
2022/10/09 08:33:10;;;;;;;8.70;4.15;;;;;;;13.79;64.08;102181.78;5062340;28;20024;-76
2022/10/09 08:35:36;;;;;;;12.07;4.13;;;;;;;13.80;64.15;102181.63;5061677;28;20029;-73
2022/10/09 08:38:01;;;;;;;8.32;3.90;;;;;;;14.01;64.31;102177.97;5067528;28;20439;-75
2022/10/09 08:40:39;;;;;;;14.77;4.60;;;;;;;13.58;65.01;102179.38;5057697;28;20036;-78
2022/10/09 08:43:09;;;;;;;7.88;3.72;;;;;;;13.65;65.53;102177.84;5058964;28;20037;-78
2022/10/09 08:45:38;;;;;;;6.85;3.75;;;;;;;13.41;66.08;102178.31;5048741;28;20033;-74
2022/10/09 08:48:12;;;;;;;9.75;3.58;;;;;;;13.91;64.40;102179.81;5060342;28;20397;-75
2022/10/09 08:50:44;;;;;;;8.40;3.30;;;;;;;13.72;64.66;102178.94;5065769;28;20481;-76
2022/10/09 08:53:25;;;;;;;13.35;3.88;;;;;;;13.41;64.88;102173.13;5068343;28;20394;-76
2022/10/09 08:55:55;;;;;;;7.85;3.28;;;;;;;13.56;65.85;102170.88;5063806;28;20086;-75
2022/10/09 08:58:30;;;;;;;13.70;4.00;;;;;;;13.40;66.42;102174.09;5064382;28;20079;-76
2022/10/09 09:01:11;;;;;;;8.05;3.58;;;;;;;13.39;66.38;102164.63;5061638;28;20137;-76
2022/10/09 09:04:01;;;;;;;11.00;4.35;;;;;;;13.41;66.42;102162.69;5064208;28;20032;-77
2022/10/09 09:06:43;;;;;;;6.65;3.20;;;;;;;13.28;67.55;102151.72;5061922;28;20445;-75
2022/10/09 09:09:25;;;;;;;10.07;4.32;;;;;;;13.14;67.49;102155.59;5067140;28;20477;-77
2022/10/09 09:12:24;;;;;;;9.43;3.47;;;;;;;12.82;69.72;102146.31;5058377;28;20082;-74
2022/10/09 09:15:17;;;;;;;13.05;4.28;;;;;;;12.85;70.02;102140.84;5045472;28;20031;-75
2022/10/09 09:17:55;;;;;;;10.63;4.78;;;;;;;12.94;69.72;102129.63;5095973;28;20038;-76
2022/10/09 09:20:29;;;;;;;11.75;3.88;;;;;;;12.82;70.17;102128.91;5048023;28;20094;-74
2022/10/09 09:22:57;;;;;;;9.45;3.70;;;;;;;12.79;70.20;102128.38;5042309;28;20041;-77
2022/10/09 09:25:33;;;;;;;9.10;4.40;;;;;;;12.76;69.64;102128.66;5073487;28;20033;-74
2022/10/09 09:28:18;;;;;;;10.50;3.80;;;;;;;12.89;70.15;102120.56;5064628;28;20036;-74
2022/10/09 09:30:50;;;;;;;12.02;3.60;;;;;;;12.82;70.72;102117.69;5049291;28;20039;-76
2022/10/09 09:33:37;;;;;;;11.05;3.28;;;;;;;12.92;70.70;102115.06;5062150;28;20039;-76
2022/10/09 09:36:15;;;;;;;7.22;3.25;;;;;;;13.03;70.35;102118.38;5062325;28;20055;-74
2022/10/09 09:38:41;;;;;;;11.00;3.53;;;;;;;13.21;70.39;102115.03;5066381;28;20494;-75
2022/10/09 09:41:06;;;;;;;7.28;3.33;;;;;;;13.29;69.50;102112.53;5060359;28;20086;-75
2022/10/09 09:43:33;;;;;;;17.00;3.53;;;;;;;13.47;70.23;102111.81;5060795;28;20440;-77
2022/10/09 09:45:59;;;;;;;10.70;3.55;;;;;;;13.58;70.11;102102.03;5064500;28;20509;-76
2022/10/09 09:48:40;;;;;;;5.38;3.00;;;;;;;13.54;67.67;102105.06;5064112;28;20485;-75
2022/10/09 09:51:16;;;;;;;9.75;3.05;;;;;;;13.50;68.76;102099.31;5047975;28;20465;-75
2022/10/09 09:53:52;;;;;;;6.90;3.08;;;;;;;13.42;68.19;102087.00;5048091;28;20036;-76
2022/10/09 09:56:18;;;;;;;7.25;2.97;;;;;;;13.42;68.06;102092.22;5058458;28;20032;-77
2022/10/09 09:58:45;;;;;;;9.57;3.30;;;;;;;13.50;67.62;102088.88;5062916;28;20577;-76
2022/10/09 10:01:27;;;;;;;9.27;3.10;;;;;;;13.47;66.53;102083.13;5077177;28;20048;-75
2022/10/09 10:03:59;;;;;;;6.47;2.88;;;;;;;13.37;67.73;102080.59;5078014;28;20029;-76
2022/10/09 10:06:42;;;;;;;8.40;2.70;;;;;;;13.49;67.92;102074.25;5056945;28;20044;-79
2022/10/09 10:09:14;;;;;;;8.52;2.95;;;;;;;13.60;67.01;102075.84;5041316;28;20501;-76
2022/10/09 10:11:46;;;;;;;9.83;2.60;;;;;;;13.61;66.84;102075.66;5080273;28;20055;-75
2022/10/09 10:14:13;;;;;;;9.30;2.95;;;;;;;13.61;66.44;102072.25;5055705;28;20021;-77
2022/10/09 10:16:39;;;;;;;16.08;7.03;;;;;;;13.67;67.02;102061.25;5047345;28;20028;-74
2022/10/09 10:19:06;;;;;;;7.47;2.90;;;;;;;13.80;65.50;102061.72;5056466;28;20052;-74
2022/10/09 10:22:06;;;;;;;8.15;3.25;;;;;;;13.65;65.99;102057.97;5062160;28;20115;-75
2022/10/09 10:24:40;;;;;;;10.13;3.03;;;;;;;13.74;65.82;102056.28;5064245;28;20037;-75
2022/10/09 10:27:20;;;;;;;9.20;3.40;;;;;;;13.82;65.66;102049.38;5062910;28;20057;-76
2022/10/09 10:29:48;;;;;;;7.88;2.90;;;;;;;13.81;66.33;102047.72;5094690;28;20373;-75
2022/10/09 10:32:13;;;;;;;6.65;2.95;;;;;;;14.01;66.09;102035.38;5062142;28;20068;-74
2022/10/09 10:34:48;;;;;;;15.68;3.63;;;;;;;14.14;64.88;102044.59;5068908;28;20136;-74
2022/10/09 10:37:22;;;;;;;7.80;3.40;;;;;;;14.11;64.48;102035.31;5059452;28;20087;-77
2022/10/09 10:40:13;;;;;;;12.73;3.35;;;;;;;14.05;66.13;102030.66;5044554;28;20049;-75
2022/10/09 10:42:57;;;;;;;8.20;3.10;;;;;;;14.17;64.43;102026.88;5042179;28;20041;-75
2022/10/09 10:45:34;;;;;;;8.45;2.92;;;;;;;14.33;64.06;102027.97;5060508;28;20033;-75
2022/10/09 10:48:02;;;;;;;11.15;3.22;;;;;;;14.45;64.46;102021.56;5063411;28;20064;-74
2022/10/09 10:50:37;;;;;;;9.30;2.58;;;;;;;14.47;62.97;102019.63;5063291;28;20041;-73
2022/10/09 10:53:25;;;;;;;10.98;3.65;;;;;;;14.36;62.24;102012.84;5045194;28;20040;-76
2022/10/09 10:56:07;;;;;;;9.50;2.88;;;;;;;14.41;63.40;102004.56;5075287;28;20028;-77
2022/10/09 10:58:54;;;;;;;12.82;2.90;;;;;;;14.50;62.17;101998.41;5051631;28;20036;-73
2022/10/09 11:01:43;;;;;;;8.40;3.35;;;;;;;14.54;61.80;101998.94;5061478;28;20398;-74
2022/10/09 11:04:27;;;;;;;12.00;2.83;;;;;;;14.56;63.34;101992.59;5064470;28;20041;-75
2022/10/09 11:07:00;;;;;;;7.07;2.90;;;;;;;14.63;62.40;101990.22;5060238;28;20033;-74
2022/10/09 11:10:07;;;;;;;10.30;3.03;;;;;;;14.76;62.88;101985.41;5063841;28;20091;-76
2022/10/09 11:12:44;;;;;;;14.50;2.72;;;;;;;14.66;62.81;101986.50;5053756;28;20064;-76
2022/10/09 11:15:36;;;;;;;6.82;2.72;;;;;;;14.78;61.32;101973.00;5090897;28;20524;-76
2022/10/09 11:18:16;;;;;;;12.23;2.90;;;;;;;14.79;62.71;101973.84;5063799;28;20037;-76
2022/10/09 11:21:03;;;;;;;9.32;3.28;;;;;;;14.85;62.50;101973.22;5080414;28;20169;-75
2022/10/09 11:23:53;;;;;;;10.55;3.13;;;;;;;15.04;61.41;101953.88;5064515;28;20044;-77
2022/10/09 11:26:21;;;;;;;7.32;2.63;;;;;;;15.10;60.10;101968.91;5063088;28;20037;-77
2022/10/09 11:29:15;;;;;;;8.10;3.20;;;;;;;15.12;61.05;101953.91;5064305;28;20067;-76
2022/10/09 11:31:59;;;;;;;10.05;2.97;;;;;;;15.27;60.52;101956.72;5051671;28;20047;-77
2022/10/09 11:34:48;;;;;;;7.25;2.50;;;;;;;15.29;60.87;101952.16;5050336;28;20036;-74
2022/10/09 11:37:19;;;;;;;9.30;2.60;;;;;;;15.47;60.15;101943.41;5061888;28;20409;-76
2022/10/09 11:39:45;;;;;;;9.48;2.38;;;;;;;15.49;60.29;101944.88;5063839;28;20033;-78